sensor_id;sensor_type;location;lat;lon;timestamp;temperature;humidity
21592;DHT22;10958;50.892;3.992;2023-05-15T00:00:51;10.40;99.90
21592;DHT22;10958;50.892;3.992;2023-05-15T00:03:17;10.40;99.90
21592;DHT22;10958;50.892;3.992;2023-05-15T00:05:43;10.20;99.90
21592;DHT22;10958;50.892;3.992;2023-05-15T00:08:09;10.20;99.90
21592;DHT22;10958;50.892;3.992;2023-05-15T00:10:34;10.20;99.90
21592;DHT22;10958;50.892;3.992;2023-05-15T00:13:01;10.10;99.90
21592;DHT22;10958;50.892;3.992;2023-05-15T00:15:26;10.10;99.90
21592;DHT22;10958;50.892;3.992;2023-05-15T00:17:53;10.10;99.90
21592;DHT22;10958;50.892;3.992;2023-05-15T00:20:21;10.10;99.90
21592;DHT22;10958;50.892;3.992;2023-05-15T00:22:47;10.00;99.90
21592;DHT22;10958;50.892;3.992;2023-05-15T00:25:13;10.10;99.90
21592;DHT22;10958;50.892;3.992;2023-05-15T00:27:39;10.00;99.90
21592;DHT22;10958;50.892;3.992;2023-05-15T00:30:05;10.00;99.90
21592;DHT22;10958;50.892;3.992;2023-05-15T00:32:31;10.00;99.90
21592;DHT22;10958;50.892;3.992;2023-05-15T00:34:57;10.00;99.90
21592;DHT22;10958;50.892;3.992;2023-05-15T00:37:22;10.00;99.90
21592;DHT22;10958;50.892;3.992;2023-05-15T00:39:51;10.00;99.90
21592;DHT22;10958;50.892;3.992;2023-05-15T00:42:20;10.00;99.90
21592;DHT22;10958;50.892;3.992;2023-05-15T00:44:47;10.00;99.90
21592;DHT22;10958;50.892;3.992;2023-05-15T00:47:15;10.00;99.90
21592;DHT22;10958;50.892;3.992;2023-05-15T00:49:44;10.00;99.90
21592;DHT22;10958;50.892;3.992;2023-05-15T00:52:10;10.00;99.90
21592;DHT22;10958;50.892;3.992;2023-05-15T00:54:36;10.10;99.90
21592;DHT22;10958;50.892;3.992;2023-05-15T00:57:03;10.20;99.90
21592;DHT22;10958;50.892;3.992;2023-05-15T00:59:30;10.50;99.90
21592;DHT22;10958;50.892;3.992;2023-05-15T01:01:57;10.50;99.90
21592;DHT22;10958;50.892;3.992;2023-05-15T01:04:22;10.80;99.90
21592;DHT22;10958;50.892;3.992;2023-05-15T01:06:48;11.10;99.90
21592;DHT22;10958;50.892;3.992;2023-05-15T01:09:16;11.30;99.90
21592;DHT22;10958;50.892;3.992;2023-05-15T01:11:43;11.40;99.90
21592;DHT22;10958;50.892;3.992;2023-05-15T01:14:13;11.40;99.90
21592;DHT22;10958;50.892;3.992;2023-05-15T01:16:39;11.20;99.90
21592;DHT22;10958;50.892;3.992;2023-05-15T01:19:06;11.30;99.90
21592;DHT22;10958;50.892;3.992;2023-05-15T01:24:56;11.20;99.90
21592;DHT22;10958;50.892;3.992;2023-05-15T01:30:21;11.30;99.90
21592;DHT22;10958;50.892;3.992;2023-05-15T01:33:11;11.10;99.90
21592;DHT22;10958;50.892;3.992;2023-05-15T01:38:33;10.80;99.90
21592;DHT22;10958;50.892;3.992;2023-05-15T01:43:55;10.80;99.90
21592;DHT22;10958;50.892;3.992;2023-05-15T01:46:22;10.60;99.90
21592;DHT22;10958;50.892;3.992;2023-05-15T01:48:51;10.60;99.90
21592;DHT22;10958;50.892;3.992;2023-05-15T01:51:19;10.50;99.90
21592;DHT22;10958;50.892;3.992;2023-05-15T01:53:48;10.40;99.90
21592;DHT22;10958;50.892;3.992;2023-05-15T01:56:15;10.50;99.90
21592;DHT22;10958;50.892;3.992;2023-05-15T01:58:43;10.60;99.90
21592;DHT22;10958;50.892;3.992;2023-05-15T02:01:09;10.60;99.90
21592;DHT22;10958;50.892;3.992;2023-05-15T02:03:36;10.60;99.90
21592;DHT22;10958;50.892;3.992;2023-05-15T02:06:04;10.80;99.90
21592;DHT22;10958;50.892;3.992;2023-05-15T02:08:31;10.90;99.90
21592;DHT22;10958;50.892;3.992;2023-05-15T02:10:58;11.00;99.90
21592;DHT22;10958;50.892;3.992;2023-05-15T02:13:28;11.20;99.90
21592;DHT22;10958;50.892;3.992;2023-05-15T02:15:55;11.40;99.90
21592;DHT22;10958;50.892;3.992;2023-05-15T02:18:21;11.50;99.90
21592;DHT22;10958;50.892;3.992;2023-05-15T02:20:47;11.40;99.90
21592;DHT22;10958;50.892;3.992;2023-05-15T02:23:15;11.30;99.90
21592;DHT22;10958;50.892;3.992;2023-05-15T02:25:47;11.20;99.90
21592;DHT22;10958;50.892;3.992;2023-05-15T02:28:32;11.00;99.90
21592;DHT22;10958;50.892;3.992;2023-05-15T02:31:07;10.70;99.90
21592;DHT22;10958;50.892;3.992;2023-05-15T02:33:41;10.60;99.90
21592;DHT22;10958;50.892;3.992;2023-05-15T02:36:19;10.50;99.90
21592;DHT22;10958;50.892;3.992;2023-05-15T02:38:52;10.50;99.90
21592;DHT22;10958;50.892;3.992;2023-05-15T02:41:19;10.40;99.90
21592;DHT22;10958;50.892;3.992;2023-05-15T02:43:50;10.40;99.90
21592;DHT22;10958;50.892;3.992;2023-05-15T02:46:18;10.50;99.90
21592;DHT22;10958;50.892;3.992;2023-05-15T02:48:44;10.50;99.90
21592;DHT22;10958;50.892;3.992;2023-05-15T02:51:11;10.50;99.90
21592;DHT22;10958;50.892;3.992;2023-05-15T02:53:40;10.50;99.90
21592;DHT22;10958;50.892;3.992;2023-05-15T02:56:09;10.60;99.90
21592;DHT22;10958;50.892;3.992;2023-05-15T02:58:36;10.70;99.90
21592;DHT22;10958;50.892;3.992;2023-05-15T03:01:05;10.80;99.90
21592;DHT22;10958;50.892;3.992;2023-05-15T03:03:31;10.80;99.90
21592;DHT22;10958;50.892;3.992;2023-05-15T03:05:57;10.70;99.90
21592;DHT22;10958;50.892;3.992;2023-05-15T03:08:22;10.40;99.90
21592;DHT22;10958;50.892;3.992;2023-05-15T03:10:48;10.40;99.90
21592;DHT22;10958;50.892;3.992;2023-05-15T03:13:14;10.50;99.90
21592;DHT22;10958;50.892;3.992;2023-05-15T03:15:42;10.70;99.90
21592;DHT22;10958;50.892;3.992;2023-05-15T03:18:09;11.00;99.90
21592;DHT22;10958;50.892;3.992;2023-05-15T03:20:35;11.20;99.90
21592;DHT22;10958;50.892;3.992;2023-05-15T03:23:01;11.30;99.90
21592;DHT22;10958;50.892;3.992;2023-05-15T03:25:27;11.20;99.90
21592;DHT22;10958;50.892;3.992;2023-05-15T03:27:53;11.20;99.90
21592;DHT22;10958;50.892;3.992;2023-05-15T03:30:18;11.20;99.90
21592;DHT22;10958;50.892;3.992;2023-05-15T03:32:44;11.30;99.90
21592;DHT22;10958;50.892;3.992;2023-05-15T03:35:10;11.50;99.90
21592;DHT22;10958;50.892;3.992;2023-05-15T03:37:36;11.60;99.90
21592;DHT22;10958;50.892;3.992;2023-05-15T03:40:04;11.60;99.90
21592;DHT22;10958;50.892;3.992;2023-05-15T03:42:31;11.30;99.90
21592;DHT22;10958;50.892;3.992;2023-05-15T03:44:57;11.10;99.90
21592;DHT22;10958;50.892;3.992;2023-05-15T03:47:23;11.00;99.90
21592;DHT22;10958;50.892;3.992;2023-05-15T03:49:51;11.00;99.90
21592;DHT22;10958;50.892;3.992;2023-05-15T03:52:19;11.00;99.90
21592;DHT22;10958;50.892;3.992;2023-05-15T03:54:45;10.90;99.90
21592;DHT22;10958;50.892;3.992;2023-05-15T03:57:13;11.10;99.90
21592;DHT22;10958;50.892;3.992;2023-05-15T03:59:39;11.10;99.90
21592;DHT22;10958;50.892;3.992;2023-05-15T04:02:04;11.10;99.90
21592;DHT22;10958;50.892;3.992;2023-05-15T04:04:31;11.30;99.90
21592;DHT22;10958;50.892;3.992;2023-05-15T04:06:57;11.50;99.90
21592;DHT22;10958;50.892;3.992;2023-05-15T04:09:22;11.50;99.90
21592;DHT22;10958;50.892;3.992;2023-05-15T04:11:48;11.20;99.90
21592;DHT22;10958;50.892;3.992;2023-05-15T04:14:14;11.00;99.90
21592;DHT22;10958;50.892;3.992;2023-05-15T04:16:40;10.90;99.90
21592;DHT22;10958;50.892;3.992;2023-05-15T04:19:06;10.60;99.90
21592;DHT22;10958;50.892;3.992;2023-05-15T04:21:32;10.60;99.90
21592;DHT22;10958;50.892;3.992;2023-05-15T04:23:58;10.80;99.90
21592;DHT22;10958;50.892;3.992;2023-05-15T04:26:23;10.90;99.90
21592;DHT22;10958;50.892;3.992;2023-05-15T04:28:50;11.00;99.90
21592;DHT22;10958;50.892;3.992;2023-05-15T04:31:15;11.00;99.90
21592;DHT22;10958;50.892;3.992;2023-05-15T04:33:42;10.80;99.90
21592;DHT22;10958;50.892;3.992;2023-05-15T04:36:08;10.50;99.90
21592;DHT22;10958;50.892;3.992;2023-05-15T04:38:35;10.20;99.90
21592;DHT22;10958;50.892;3.992;2023-05-15T04:41:01;10.10;99.90
21592;DHT22;10958;50.892;3.992;2023-05-15T04:43:26;10.10;99.90
21592;DHT22;10958;50.892;3.992;2023-05-15T04:45:52;10.30;99.90
21592;DHT22;10958;50.892;3.992;2023-05-15T04:48:18;10.30;99.90
21592;DHT22;10958;50.892;3.992;2023-05-15T04:50:44;10.20;99.90
21592;DHT22;10958;50.892;3.992;2023-05-15T04:53:12;10.00;99.90
21592;DHT22;10958;50.892;3.992;2023-05-15T04:55:37;10.10;99.90
21592;DHT22;10958;50.892;3.992;2023-05-15T04:58:03;10.20;99.90
21592;DHT22;10958;50.892;3.992;2023-05-15T05:00:29;10.30;99.90
21592;DHT22;10958;50.892;3.992;2023-05-15T05:02:55;10.20;99.90
21592;DHT22;10958;50.892;3.992;2023-05-15T05:05:21;10.20;99.90
21592;DHT22;10958;50.892;3.992;2023-05-15T05:07:47;10.20;99.90
21592;DHT22;10958;50.892;3.992;2023-05-15T05:10:13;10.30;99.90
21592;DHT22;10958;50.892;3.992;2023-05-15T05:12:39;10.20;99.90
21592;DHT22;10958;50.892;3.992;2023-05-15T05:15:06;10.00;99.90
21592;DHT22;10958;50.892;3.992;2023-05-15T05:17:34;10.10;99.90
21592;DHT22;10958;50.892;3.992;2023-05-15T05:20:00;10.30;99.90
21592;DHT22;10958;50.892;3.992;2023-05-15T05:22:26;10.50;99.90
21592;DHT22;10958;50.892;3.992;2023-05-15T05:24:51;10.60;99.90
21592;DHT22;10958;50.892;3.992;2023-05-15T05:27:17;10.70;99.90
21592;DHT22;10958;50.892;3.992;2023-05-15T05:29:44;10.70;99.90
21592;DHT22;10958;50.892;3.992;2023-05-15T05:32:10;10.60;99.90
21592;DHT22;10958;50.892;3.992;2023-05-15T05:34:39;10.40;99.90
21592;DHT22;10958;50.892;3.992;2023-05-15T05:37:04;10.40;99.90
21592;DHT22;10958;50.892;3.992;2023-05-15T05:39:30;10.40;99.90
21592;DHT22;10958;50.892;3.992;2023-05-15T05:41:56;10.50;99.90
21592;DHT22;10958;50.892;3.992;2023-05-15T05:44:24;10.50;99.90
21592;DHT22;10958;50.892;3.992;2023-05-15T05:46:51;10.70;99.90
21592;DHT22;10958;50.892;3.992;2023-05-15T05:49:17;10.90;99.90
21592;DHT22;10958;50.892;3.992;2023-05-15T05:51:44;11.00;99.90
21592;DHT22;10958;50.892;3.992;2023-05-15T05:54:10;10.80;99.90
21592;DHT22;10958;50.892;3.992;2023-05-15T05:56:39;10.70;99.90
21592;DHT22;10958;50.892;3.992;2023-05-15T05:59:07;10.50;99.90
21592;DHT22;10958;50.892;3.992;2023-05-15T06:01:33;10.40;99.90
21592;DHT22;10958;50.892;3.992;2023-05-15T06:03:59;10.40;99.90
21592;DHT22;10958;50.892;3.992;2023-05-15T06:06:27;10.50;99.90
21592;DHT22;10958;50.892;3.992;2023-05-15T06:08:53;10.50;99.90
21592;DHT22;10958;50.892;3.992;2023-05-15T06:11:18;10.80;99.90
21592;DHT22;10958;50.892;3.992;2023-05-15T06:13:44;10.70;99.90
21592;DHT22;10958;50.892;3.992;2023-05-15T06:16:10;10.60;99.90
21592;DHT22;10958;50.892;3.992;2023-05-15T06:18:36;10.70;99.90
21592;DHT22;10958;50.892;3.992;2023-05-15T06:21:01;10.80;99.90
21592;DHT22;10958;50.892;3.992;2023-05-15T06:23:27;11.00;99.90
21592;DHT22;10958;50.892;3.992;2023-05-15T06:25:55;11.30;99.90
21592;DHT22;10958;50.892;3.992;2023-05-15T06:28:21;11.50;99.90
21592;DHT22;10958;50.892;3.992;2023-05-15T06:30:47;11.50;99.90
21592;DHT22;10958;50.892;3.992;2023-05-15T06:33:12;11.70;99.90
21592;DHT22;10958;50.892;3.992;2023-05-15T06:35:38;11.90;99.90
21592;DHT22;10958;50.892;3.992;2023-05-15T06:38:04;12.10;99.90
21592;DHT22;10958;50.892;3.992;2023-05-15T06:40:29;12.00;99.90
21592;DHT22;10958;50.892;3.992;2023-05-15T06:42:55;11.80;99.90
21592;DHT22;10958;50.892;3.992;2023-05-15T06:45:21;11.80;99.90
21592;DHT22;10958;50.892;3.992;2023-05-15T06:47:46;11.80;99.90
21592;DHT22;10958;50.892;3.992;2023-05-15T06:50:12;11.80;99.90
21592;DHT22;10958;50.892;3.992;2023-05-15T06:52:38;12.00;99.90
21592;DHT22;10958;50.892;3.992;2023-05-15T06:55:03;12.00;99.90
21592;DHT22;10958;50.892;3.992;2023-05-15T06:57:29;12.20;99.90
21592;DHT22;10958;50.892;3.992;2023-05-15T06:59:55;12.40;99.90
21592;DHT22;10958;50.892;3.992;2023-05-15T07:02:21;12.70;99.90
21592;DHT22;10958;50.892;3.992;2023-05-15T07:04:46;12.80;99.90
21592;DHT22;10958;50.892;3.992;2023-05-15T07:07:12;12.90;99.90
21592;DHT22;10958;50.892;3.992;2023-05-15T07:09:37;12.70;99.90
21592;DHT22;10958;50.892;3.992;2023-05-15T07:12:03;12.80;99.90
21592;DHT22;10958;50.892;3.992;2023-05-15T07:14:30;12.70;99.90
21592;DHT22;10958;50.892;3.992;2023-05-15T07:16:55;12.80;99.90
21592;DHT22;10958;50.892;3.992;2023-05-15T07:19:22;12.70;99.90
21592;DHT22;10958;50.892;3.992;2023-05-15T07:21:50;12.70;99.90
21592;DHT22;10958;50.892;3.992;2023-05-15T07:24:16;12.20;99.90
21592;DHT22;10958;50.892;3.992;2023-05-15T07:26:42;12.00;99.90
21592;DHT22;10958;50.892;3.992;2023-05-15T07:29:08;12.00;99.90
21592;DHT22;10958;50.892;3.992;2023-05-15T07:34:26;12.60;99.90
21592;DHT22;10958;50.892;3.992;2023-05-15T07:36:54;12.40;99.90
21592;DHT22;10958;50.892;3.992;2023-05-15T07:39:22;12.50;99.90
21592;DHT22;10958;50.892;3.992;2023-05-15T07:41:48;12.50;99.90
21592;DHT22;10958;50.892;3.992;2023-05-15T07:44:19;12.70;99.90
21592;DHT22;10958;50.892;3.992;2023-05-15T07:50:22;13.00;99.90
21592;DHT22;10958;50.892;3.992;2023-05-15T07:52:54;13.20;99.90
21592;DHT22;10958;50.892;3.992;2023-05-15T07:55:40;13.20;99.90
21592;DHT22;10958;50.892;3.992;2023-05-15T07:58:07;13.20;99.90
21592;DHT22;10958;50.892;3.992;2023-05-15T08:00:32;13.20;99.90
21592;DHT22;10958;50.892;3.992;2023-05-15T08:02:59;13.40;99.90
21592;DHT22;10958;50.892;3.992;2023-05-15T08:05:24;13.50;99.90
21592;DHT22;10958;50.892;3.992;2023-05-15T08:07:50;13.60;99.90
21592;DHT22;10958;50.892;3.992;2023-05-15T08:10:16;13.40;99.90
21592;DHT22;10958;50.892;3.992;2023-05-15T08:12:41;13.30;99.90
21592;DHT22;10958;50.892;3.992;2023-05-15T08:15:11;13.20;99.90
21592;DHT22;10958;50.892;3.992;2023-05-15T08:17:37;13.20;99.90
21592;DHT22;10958;50.892;3.992;2023-05-15T08:20:04;13.70;99.90
21592;DHT22;10958;50.892;3.992;2023-05-15T08:22:30;14.10;99.90
21592;DHT22;10958;50.892;3.992;2023-05-15T08:24:58;14.20;99.90
21592;DHT22;10958;50.892;3.992;2023-05-15T08:27:28;14.30;99.90
21592;DHT22;10958;50.892;3.992;2023-05-15T08:29:55;14.10;99.90
21592;DHT22;10958;50.892;3.992;2023-05-15T08:32:20;13.80;99.90
21592;DHT22;10958;50.892;3.992;2023-05-15T08:34:46;13.70;99.90
21592;DHT22;10958;50.892;3.992;2023-05-15T08:37:12;13.60;99.90
21592;DHT22;10958;50.892;3.992;2023-05-15T08:39:37;13.90;99.90
21592;DHT22;10958;50.892;3.992;2023-05-15T08:42:32;14.40;99.90
21592;DHT22;10958;50.892;3.992;2023-05-15T08:48:45;15.30;99.90
21592;DHT22;10958;50.892;3.992;2023-05-15T08:51:12;14.80;99.90
21592;DHT22;10958;50.892;3.992;2023-05-15T08:56:57;15.10;99.90
21592;DHT22;10958;50.892;3.992;2023-05-15T08:59:50;14.60;99.90
21592;DHT22;10958;50.892;3.992;2023-05-15T09:02:17;14.60;99.90
21592;DHT22;10958;50.892;3.992;2023-05-15T09:05:00;15.00;99.90
21592;DHT22;10958;50.892;3.992;2023-05-15T09:07:34;15.40;99.90
21592;DHT22;10958;50.892;3.992;2023-05-15T09:10:01;15.70;99.90
21592;DHT22;10958;50.892;3.992;2023-05-15T09:12:32;15.50;99.90
21592;DHT22;10958;50.892;3.992;2023-05-15T09:15:11;15.70;99.90
21592;DHT22;10958;50.892;3.992;2023-05-15T09:17:37;16.00;99.90
21592;DHT22;10958;50.892;3.992;2023-05-15T09:20:06;15.80;99.90
21592;DHT22;10958;50.892;3.992;2023-05-15T09:22:35;15.60;99.90
21592;DHT22;10958;50.892;3.992;2023-05-15T09:25:07;15.80;99.90
21592;DHT22;10958;50.892;3.992;2023-05-15T09:27:41;15.80;99.90
21592;DHT22;10958;50.892;3.992;2023-05-15T09:30:08;15.70;99.90
21592;DHT22;10958;50.892;3.992;2023-05-15T09:32:34;15.80;99.90
21592;DHT22;10958;50.892;3.992;2023-05-15T09:35:03;15.80;99.90
21592;DHT22;10958;50.892;3.992;2023-05-15T09:37:31;15.80;99.90
21592;DHT22;10958;50.892;3.992;2023-05-15T09:40:09;16.00;99.90
21592;DHT22;10958;50.892;3.992;2023-05-15T09:42:37;15.60;99.90
21592;DHT22;10958;50.892;3.992;2023-05-15T09:45:03;15.50;99.90
21592;DHT22;10958;50.892;3.992;2023-05-15T09:47:29;15.10;99.90
21592;DHT22;10958;50.892;3.992;2023-05-15T09:49:58;14.70;99.90
21592;DHT22;10958;50.892;3.992;2023-05-15T09:52:24;14.40;99.90
21592;DHT22;10958;50.892;3.992;2023-05-15T09:54:49;14.20;99.90
21592;DHT22;10958;50.892;3.992;2023-05-15T09:57:20;14.10;99.90
21592;DHT22;10958;50.892;3.992;2023-05-15T09:59:48;14.20;99.90
21592;DHT22;10958;50.892;3.992;2023-05-15T10:02:25;14.30;99.90
21592;DHT22;10958;50.892;3.992;2023-05-15T10:04:57;14.30;99.90
21592;DHT22;10958;50.892;3.992;2023-05-15T10:07:30;14.60;99.90
21592;DHT22;10958;50.892;3.992;2023-05-15T10:10:06;14.50;99.90
21592;DHT22;10958;50.892;3.992;2023-05-15T10:12:35;14.40;99.90
21592;DHT22;10958;50.892;3.992;2023-05-15T10:15:03;14.70;99.90
21592;DHT22;10958;50.892;3.992;2023-05-15T10:17:31;14.90;99.90
21592;DHT22;10958;50.892;3.992;2023-05-15T10:19:59;15.00;99.90
21592;DHT22;10958;50.892;3.992;2023-05-15T10:22:28;15.50;99.90
21592;DHT22;10958;50.892;3.992;2023-05-15T10:28:01;15.50;99.90
21592;DHT22;10958;50.892;3.992;2023-05-15T10:30:40;15.80;99.90
21592;DHT22;10958;50.892;3.992;2023-05-15T10:33:07;15.90;99.90
21592;DHT22;10958;50.892;3.992;2023-05-15T10:35:34;15.70;99.90
21592;DHT22;10958;50.892;3.992;2023-05-15T10:38:03;15.80;99.90
21592;DHT22;10958;50.892;3.992;2023-05-15T10:40:29;15.20;99.90
21592;DHT22;10958;50.892;3.992;2023-05-15T10:42:59;15.00;99.90
21592;DHT22;10958;50.892;3.992;2023-05-15T10:45:27;14.70;99.90
21592;DHT22;10958;50.892;3.992;2023-05-15T10:47:54;14.40;99.90
21592;DHT22;10958;50.892;3.992;2023-05-15T10:50:20;14.30;99.90
21592;DHT22;10958;50.892;3.992;2023-05-15T10:52:49;14.30;99.90
21592;DHT22;10958;50.892;3.992;2023-05-15T10:55:16;14.20;99.90
21592;DHT22;10958;50.892;3.992;2023-05-15T10:57:45;14.00;99.90
21592;DHT22;10958;50.892;3.992;2023-05-15T11:02:47;13.90;99.90
21592;DHT22;10958;50.892;3.992;2023-05-15T11:08:41;14.40;99.90
21592;DHT22;10958;50.892;3.992;2023-05-15T11:14:14;14.30;99.90
21592;DHT22;10958;50.892;3.992;2023-05-15T11:19:38;14.00;99.90
21592;DHT22;10958;50.892;3.992;2023-05-15T11:22:21;13.90;99.90
21592;DHT22;10958;50.892;3.992;2023-05-15T11:24:56;13.80;99.90
21592;DHT22;10958;50.892;3.992;2023-05-15T11:30:11;13.70;99.90
21592;DHT22;10958;50.892;3.992;2023-05-15T11:32:42;13.70;99.90
21592;DHT22;10958;50.892;3.992;2023-05-15T11:35:09;13.70;99.90
21592;DHT22;10958;50.892;3.992;2023-05-15T11:37:42;13.70;99.90
21592;DHT22;10958;50.892;3.992;2023-05-15T11:40:23;13.60;99.90
21592;DHT22;10958;50.892;3.992;2023-05-15T11:43:05;13.50;99.90
21592;DHT22;10958;50.892;3.992;2023-05-15T11:45:36;13.50;99.90
21592;DHT22;10958;50.892;3.992;2023-05-15T11:48:05;13.60;99.90
21592;DHT22;10958;50.892;3.992;2023-05-15T11:50:33;13.80;99.90
21592;DHT22;10958;50.892;3.992;2023-05-15T11:53:06;13.70;99.90
21592;DHT22;10958;50.892;3.992;2023-05-15T11:55:33;13.50;99.90
21592;DHT22;10958;50.892;3.992;2023-05-15T11:57:59;13.20;99.90
21592;DHT22;10958;50.892;3.992;2023-05-15T12:00:26;13.20;99.90
21592;DHT22;10958;50.892;3.992;2023-05-15T12:02:51;13.20;99.90
21592;DHT22;10958;50.892;3.992;2023-05-15T12:05:18;13.20;99.90
21592;DHT22;10958;50.892;3.992;2023-05-15T12:07:44;13.20;99.90
21592;DHT22;10958;50.892;3.992;2023-05-15T12:10:11;13.20;99.90
21592;DHT22;10958;50.892;3.992;2023-05-15T12:12:43;13.20;99.90
21592;DHT22;10958;50.892;3.992;2023-05-15T12:15:12;13.10;99.90
21592;DHT22;10958;50.892;3.992;2023-05-15T12:17:39;13.10;99.90
21592;DHT22;10958;50.892;3.992;2023-05-15T12:20:15;13.00;99.90
21592;DHT22;10958;50.892;3.992;2023-05-15T12:22:41;13.00;99.90
21592;DHT22;10958;50.892;3.992;2023-05-15T12:25:08;12.90;99.90
21592;DHT22;10958;50.892;3.992;2023-05-15T12:27:36;12.80;99.90
21592;DHT22;10958;50.892;3.992;2023-05-15T12:30:06;12.70;99.90
21592;DHT22;10958;50.892;3.992;2023-05-15T12:32:34;12.70;99.90
21592;DHT22;10958;50.892;3.992;2023-05-15T12:35:00;12.70;99.90
21592;DHT22;10958;50.892;3.992;2023-05-15T12:37:29;12.70;99.90
21592;DHT22;10958;50.892;3.992;2023-05-15T12:39:59;12.90;99.90
21592;DHT22;10958;50.892;3.992;2023-05-15T12:42:25;13.10;99.90
21592;DHT22;10958;50.892;3.992;2023-05-15T12:44:53;12.90;99.90
21592;DHT22;10958;50.892;3.992;2023-05-15T12:47:26;12.70;99.90
21592;DHT22;10958;50.892;3.992;2023-05-15T12:49:58;12.60;99.90
21592;DHT22;10958;50.892;3.992;2023-05-15T12:52:30;12.80;99.90
21592;DHT22;10958;50.892;3.992;2023-05-15T12:54:59;13.00;99.90
21592;DHT22;10958;50.892;3.992;2023-05-15T12:57:25;13.10;99.90
21592;DHT22;10958;50.892;3.992;2023-05-15T12:59:51;13.10;99.90
21592;DHT22;10958;50.892;3.992;2023-05-15T13:02:17;13.20;99.90
21592;DHT22;10958;50.892;3.992;2023-05-15T13:04:45;13.00;99.90
21592;DHT22;10958;50.892;3.992;2023-05-15T13:07:14;13.00;99.90
21592;DHT22;10958;50.892;3.992;2023-05-15T13:09:41;12.80;99.90
21592;DHT22;10958;50.892;3.992;2023-05-15T13:12:07;12.70;99.90
21592;DHT22;10958;50.892;3.992;2023-05-15T13:14:33;12.60;99.90
21592;DHT22;10958;50.892;3.992;2023-05-15T13:17:00;12.60;99.90
21592;DHT22;10958;50.892;3.992;2023-05-15T13:19:29;12.60;99.90
21592;DHT22;10958;50.892;3.992;2023-05-15T13:21:56;12.60;99.90
21592;DHT22;10958;50.892;3.992;2023-05-15T13:24:24;12.60;99.90
21592;DHT22;10958;50.892;3.992;2023-05-15T13:26:50;12.70;99.90
21592;DHT22;10958;50.892;3.992;2023-05-15T13:29:20;12.70;99.90
21592;DHT22;10958;50.892;3.992;2023-05-15T13:31:47;12.60;99.90
21592;DHT22;10958;50.892;3.992;2023-05-15T13:34:14;12.60;99.90
21592;DHT22;10958;50.892;3.992;2023-05-15T13:36:42;12.40;99.90
21592;DHT22;10958;50.892;3.992;2023-05-15T13:39:08;12.30;99.90
21592;DHT22;10958;50.892;3.992;2023-05-15T13:41:35;12.30;99.90
21592;DHT22;10958;50.892;3.992;2023-05-15T13:44:01;12.50;99.90
21592;DHT22;10958;50.892;3.992;2023-05-15T13:46:26;12.60;99.90
21592;DHT22;10958;50.892;3.992;2023-05-15T13:48:52;12.70;99.90
21592;DHT22;10958;50.892;3.992;2023-05-15T13:51:18;12.80;99.90
21592;DHT22;10958;50.892;3.992;2023-05-15T13:53:43;12.90;99.90
21592;DHT22;10958;50.892;3.992;2023-05-15T13:56:10;12.90;99.90
21592;DHT22;10958;50.892;3.992;2023-05-15T13:58:36;12.90;99.90
21592;DHT22;10958;50.892;3.992;2023-05-15T14:01:04;12.80;99.90
21592;DHT22;10958;50.892;3.992;2023-05-15T14:03:33;12.70;99.90
21592;DHT22;10958;50.892;3.992;2023-05-15T14:05:58;12.60;99.90
21592;DHT22;10958;50.892;3.992;2023-05-15T14:08:24;12.50;99.90
21592;DHT22;10958;50.892;3.992;2023-05-15T14:10:50;12.40;99.90
21592;DHT22;10958;50.892;3.992;2023-05-15T14:13:15;12.30;99.90
21592;DHT22;10958;50.892;3.992;2023-05-15T14:15:41;12.20;99.90
21592;DHT22;10958;50.892;3.992;2023-05-15T14:18:07;12.20;99.90
21592;DHT22;10958;50.892;3.992;2023-05-15T14:20:35;12.20;99.90
21592;DHT22;10958;50.892;3.992;2023-05-15T14:23:00;12.40;99.90
21592;DHT22;10958;50.892;3.992;2023-05-15T14:25:26;12.50;99.90
21592;DHT22;10958;50.892;3.992;2023-05-15T14:27:52;12.60;99.90
21592;DHT22;10958;50.892;3.992;2023-05-15T14:30:17;12.50;99.90
21592;DHT22;10958;50.892;3.992;2023-05-15T14:32:45;12.50;99.90
21592;DHT22;10958;50.892;3.992;2023-05-15T14:35:11;12.40;99.90
21592;DHT22;10958;50.892;3.992;2023-05-15T14:37:37;12.30;99.90
21592;DHT22;10958;50.892;3.992;2023-05-15T14:40:03;12.10;99.90
21592;DHT22;10958;50.892;3.992;2023-05-15T14:42:29;12.20;99.90
21592;DHT22;10958;50.892;3.992;2023-05-15T14:44:55;12.30;99.90
21592;DHT22;10958;50.892;3.992;2023-05-15T14:47:20;12.20;99.90
21592;DHT22;10958;50.892;3.992;2023-05-15T14:49:46;12.40;99.90
21592;DHT22;10958;50.892;3.992;2023-05-15T14:52:12;12.40;99.90
21592;DHT22;10958;50.892;3.992;2023-05-15T14:54:38;12.40;99.90
21592;DHT22;10958;50.892;3.992;2023-05-15T14:57:04;12.40;99.90
21592;DHT22;10958;50.892;3.992;2023-05-15T14:59:30;12.60;99.90
21592;DHT22;10958;50.892;3.992;2023-05-15T15:01:57;12.50;99.90
21592;DHT22;10958;50.892;3.992;2023-05-15T15:04:22;12.60;99.90
21592;DHT22;10958;50.892;3.992;2023-05-15T15:06:48;12.70;99.90
21592;DHT22;10958;50.892;3.992;2023-05-15T15:09:15;12.70;99.90
21592;DHT22;10958;50.892;3.992;2023-05-15T15:11:41;12.60;99.90
21592;DHT22;10958;50.892;3.992;2023-05-15T15:14:07;12.60;99.90
21592;DHT22;10958;50.892;3.992;2023-05-15T15:16:33;12.50;99.90
21592;DHT22;10958;50.892;3.992;2023-05-15T15:18:58;12.60;99.90
21592;DHT22;10958;50.892;3.992;2023-05-15T15:21:24;12.60;99.90
21592;DHT22;10958;50.892;3.992;2023-05-15T15:23:50;12.70;99.90
21592;DHT22;10958;50.892;3.992;2023-05-15T15:26:16;12.70;99.90
21592;DHT22;10958;50.892;3.992;2023-05-15T15:28:41;12.90;99.90
21592;DHT22;10958;50.892;3.992;2023-05-15T15:31:11;13.00;99.90
21592;DHT22;10958;50.892;3.992;2023-05-15T15:33:36;13.10;99.90
21592;DHT22;10958;50.892;3.992;2023-05-15T15:36:02;13.10;99.90
21592;DHT22;10958;50.892;3.992;2023-05-15T15:38:28;13.20;99.90
21592;DHT22;10958;50.892;3.992;2023-05-15T15:40:54;13.30;99.90
21592;DHT22;10958;50.892;3.992;2023-05-15T15:43:22;13.20;99.90
21592;DHT22;10958;50.892;3.992;2023-05-15T15:45:52;13.30;99.90
21592;DHT22;10958;50.892;3.992;2023-05-15T15:48:18;13.40;99.90
21592;DHT22;10958;50.892;3.992;2023-05-15T15:50:45;13.20;99.90
21592;DHT22;10958;50.892;3.992;2023-05-15T15:53:10;13.30;99.90
21592;DHT22;10958;50.892;3.992;2023-05-15T15:55:39;13.20;99.90
21592;DHT22;10958;50.892;3.992;2023-05-15T15:58:05;13.30;99.90
21592;DHT22;10958;50.892;3.992;2023-05-15T16:00:30;13.30;99.90
21592;DHT22;10958;50.892;3.992;2023-05-15T16:02:57;13.30;99.90
21592;DHT22;10958;50.892;3.992;2023-05-15T16:05:22;13.50;99.90
21592;DHT22;10958;50.892;3.992;2023-05-15T16:07:48;13.40;99.90
21592;DHT22;10958;50.892;3.992;2023-05-15T16:10:15;13.50;99.90
21592;DHT22;10958;50.892;3.992;2023-05-15T16:12:40;13.60;99.90
21592;DHT22;10958;50.892;3.992;2023-05-15T16:15:07;13.60;99.90